Fort Valley, Georgia
Current Conditions -  °F | °C
As of 3:55 PM on Thursday 18 Dec 2014 (Local Time) from KPXE Reporting Station
Scattered Clouds Scattered Clouds  
Wind Chill: 66°   Ceiling: Unl
Heat Index: 66°   Visibility: 10mi
Dew Point: 20°   Wind: 5mph
Humidity: 17%   Direction: 290°WNW
Pressure: 30.09"   Gusts: NA
Location:  32.55°N, 83.89°W
Report Text: KPXE 182055Z AUTO 29004KT 10SM SCT060 SCT110 19/M07 A3009 RMK AO2 T01911069
Loading
Personal Weather Stations






























Interactive Weather Map New forecast layout! Learn more

10-Day Weather Forecast

Advertisements
Track Severe Weather on mobile